Time;durP1;ratioP1;P1;durP2;ratioP2;P2;SDS_P1;SDS_P2;PMS_P1;PMS_P2;Temp;Humidity;BMP_temperature;BMP_pressure;BME280_temperature;BME280_humidity;BME280_pressure;Samples;Min_cycle;Max_cycle;Signal;HPM_P1;HPM_P2
2021/11/04 00:00:20;;;;;;;17.33;8.70;;;;;;;;;;4433226;32;20205;-57
2021/11/04 00:02:46;;;;;;;23.73;9.50;;;;;;;;;;4433305;32;20569;-55
2021/11/04 00:05:12;;;;;;;19.90;10.33;;;;;;;;;;4431229;32;20284;-56
2021/11/04 00:07:38;;;;;;;22.27;12.00;;;;;;;;;;4432819;32;20221;-55
2021/11/04 00:10:05;;;;;;;23.53;11.87;;;;;;;;;;4433101;32;20335;-57
2021/11/04 00:12:31;;;;;;;24.37;14.07;;;;;;;;;;4432787;32;20287;-55
2021/11/04 00:14:56;;;;;;;26.37;14.00;;;;;;;;;;4432726;32;20590;-56
2021/11/04 00:17:22;;;;;;;32.87;16.80;;;;;;;;;;4433313;32;20270;-56
2021/11/04 00:19:48;;;;;;;24.77;14.13;;;;;;;;;;4433445;32;20342;-57
2021/11/04 00:22:13;;;;;;;20.23;11.27;;;;;;;;;;4432990;32;20322;-55
2021/11/04 00:24:39;;;;;;;26.10;11.07;;;;;;;;;;4428546;32;20303;-55
2021/11/04 00:27:05;;;;;;;15.53;9.03;;;;;;;;;;4432585;32;20652;-56
2021/11/04 00:29:30;;;;;;;24.30;7.80;;;;;;;;;;4433314;32;20624;-57
2021/11/04 00:31:56;;;;;;;13.83;8.33;;;;;;;;;;4432882;32;20212;-55
2021/11/04 00:34:23;;;;;;;15.57;8.80;;;;;;;;;;4432848;32;20366;-57
2021/11/04 00:36:48;;;;;;;18.80;9.57;;;;;;;;;;4432627;32;20216;-56
2021/11/04 00:39:14;;;;;;;23.17;11.10;;;;;;;;;;4432862;32;20738;-58
2021/11/04 00:41:40;;;;;;;23.93;11.57;;;;;;;;;;4432827;32;20588;-55
2021/11/04 00:44:06;;;;;;;19.47;10.47;;;;;;;;;;4432672;32;20727;-56
2021/11/04 00:46:32;;;;;;;23.30;11.33;;;;;;;;;;4432872;32;20217;-56
2021/11/04 00:48:58;;;;;;;18.27;9.30;;;;;;;;;;4432598;32;20383;-55
2021/11/04 00:51:24;;;;;;;27.80;10.90;;;;;;;;;;4432933;32;20252;-55
2021/11/04 00:53:49;;;;;;;21.93;11.37;;;;;;;;;;4432406;32;20360;-56
2021/11/04 00:56:15;;;;;;;19.47;10.73;;;;;;;;;;4432778;32;20265;-56
2021/11/04 00:58:40;;;;;;;14.23;8.07;;;;;;;;;;4432788;32;20317;-56
2021/11/04 01:01:06;;;;;;;21.53;6.80;;;;;;;;;;4432400;32;20307;-56
2021/11/04 01:03:32;;;;;;;11.60;6.03;;;;;;;;;;4432611;32;20209;-55
2021/11/04 01:05:58;;;;;;;9.67;6.20;;;;;;;;;;4432698;32;20276;-55
2021/11/04 01:08:23;;;;;;;9.70;5.80;;;;;;;;;;4432448;32;20279;-56
2021/11/04 01:10:49;;;;;;;10.63;5.97;;;;;;;;;;4432535;32;20305;-55
2021/11/04 01:13:14;;;;;;;6.90;4.50;;;;;;;;;;4432210;32;20729;-57
2021/11/04 01:15:40;;;;;;;10.33;5.10;;;;;;;;;;4432667;32;20360;-55
2021/11/04 01:18:06;;;;;;;6.93;4.67;;;;;;;;;;4430925;32;20244;-56
2021/11/04 01:20:32;;;;;;;9.10;6.17;;;;;;;;;;4432320;32;20260;-58
2021/11/04 01:22:57;;;;;;;16.73;8.17;;;;;;;;;;4432026;32;20299;-56
2021/11/04 01:25:23;;;;;;;13.27;8.53;;;;;;;;;;4430140;32;20412;-57
2021/11/04 01:27:48;;;;;;;16.77;9.43;;;;;;;;;;4421170;32;20233;-56
2021/11/04 01:30:14;;;;;;;22.07;11.00;;;;;;;;;;4435460;32;20251;-56
2021/11/04 01:32:40;;;;;;;19.17;10.50;;;;;;;;;;4435613;32;20213;-56
2021/11/04 01:35:07;;;;;;;28.40;14.27;;;;;;;;;;4435115;32;20433;-56
2021/11/04 01:37:32;;;;;;;21.17;11.13;;;;;;;;;;4435347;32;20319;-55
2021/11/04 01:39:58;;;;;;;17.93;10.17;;;;;;;;;;4434844;32;20346;-57
2021/11/04 01:42:24;;;;;;;20.27;10.07;;;;;;;;;;4435150;32;20309;-55
2021/11/04 01:44:49;;;;;;;19.93;10.43;;;;;;;;;;4435194;32;20272;-56
2021/11/04 01:47:15;;;;;;;16.13;9.87;;;;;;;;;;4435048;32;20538;-57
2021/11/04 01:49:41;;;;;;;25.10;13.43;;;;;;;;;;4435484;32;20299;-57
2021/11/04 01:52:11;;;;;;;22.07;14.10;;;;;;;;;;4433120;32;20299;-57
2021/11/04 01:54:37;;;;;;;30.07;15.40;;;;;;;;;;4435310;32;20721;-56
2021/11/04 01:57:03;;;;;;;24.43;11.63;;;;;;;;;;4434683;32;20613;-56
2021/11/04 01:59:29;;;;;;;18.53;8.10;;;;;;;;;;4433626;32;20345;-55
2021/11/04 02:02:18;;;;;;;20.03;8.60;;;;;;;;;;4434559;32;20236;-56
2021/11/04 02:04:56;;;;;;;15.47;8.97;;;;;;;;;;4435021;32;20216;-56
2021/11/04 02:07:49;;;;;;;15.10;8.73;;;;;;;;;;4419123;32;20374;-56
2021/11/04 02:10:21;;;;;;;16.37;10.30;;;;;;;;;;4418136;32;20312;-56
2021/11/04 02:13:26;;;;;;;22.83;12.23;;;;;;;;;;4419653;32;20464;-57
2021/11/04 02:16:00;;;;;;;17.93;10.93;;;;;;;;;;4425840;32;20295;-57
2021/11/04 02:18:28;;;;;;;20.13;10.80;;;;;;;;;;4433213;32;20303;-57
2021/11/04 02:21:23;;;;;;;35.27;21.33;;;;;;;;;;4433099;32;20220;-57
2021/11/04 02:24:11;;;;;;;21.17;12.20;;;;;;;;;;4425707;32;20222;-57
2021/11/04 02:26:37;;;;;;;13.27;9.53;;;;;;;;;;4419035;32;20637;-56
2021/11/04 02:29:06;;;;;;;21.23;11.57;;;;;;;;;;4419060;32;20282;-57
2021/11/04 02:31:33;;;;;;;23.47;11.37;;;;;;;;;;4419376;32;20642;-56
2021/11/04 02:33:59;;;;;;;19.80;10.20;;;;;;;;;;4417816;32;20360;-57
2021/11/04 02:36:25;;;;;;;16.33;11.40;;;;;;;;;;4416818;32;20507;-57
2021/11/04 02:38:51;;;;;;;23.87;12.33;;;;;;;;;;4419107;32;20311;-57
2021/11/04 02:41:18;;;;;;;22.73;13.03;;;;;;;;;;4418883;32;20221;-56
2021/11/04 02:43:45;;;;;;;23.63;12.10;;;;;;;;;;4419248;32;20216;-56
2021/11/04 02:46:12;;;;;;;18.07;11.87;;;;;;;;;;4419368;32;20291;-56
2021/11/04 02:48:40;;;;;;;23.93;12.30;;;;;;;;;;4432994;32;20236;-57
2021/11/04 02:51:06;;;;;;;21.63;11.27;;;;;;;;;;4433132;32;20235;-57
2021/11/04 02:53:33;;;;;;;17.67;10.77;;;;;;;;;;4434184;32;20378;-56
2021/11/04 02:55:59;;;;;;;21.73;11.40;;;;;;;;;;4434130;32;20463;-57
2021/11/04 02:58:26;;;;;;;29.93;14.73;;;;;;;;;;4434082;32;20279;-58
2021/11/04 03:00:55;;;;;;;21.97;12.87;;;;;;;;;;4433865;32;20197;-57
2021/11/04 03:03:20;;;;;;;26.47;12.20;;;;;;;;;;4433971;32;20629;-57
2021/11/04 03:05:46;;;;;;;21.47;11.83;;;;;;;;;;4426960;32;20384;-56
2021/11/04 03:08:12;;;;;;;21.57;12.57;;;;;;;;;;4418397;32;20221;-57
2021/11/04 03:10:38;;;;;;;18.97;11.57;;;;;;;;;;4418613;32;20302;-57
2021/11/04 03:13:04;;;;;;;21.63;10.13;;;;;;;;;;4418397;32;20666;-56
2021/11/04 03:15:35;;;;;;;23.67;10.03;;;;;;;;;;4421365;32;20616;-58
2021/11/04 03:18:01;;;;;;;13.00;9.87;;;;;;;;;;4433508;32;20747;-56
2021/11/04 03:20:27;;;;;;;16.77;10.13;;;;;;;;;;4433761;32;20367;-57
2021/11/04 03:22:53;;;;;;;13.90;9.27;;;;;;;;;;4433531;32;20257;-54
2021/11/04 03:25:20;;;;;;;15.53;8.10;;;;;;;;;;4431972;32;20522;-56
2021/11/04 03:27:50;;;;;;;13.93;9.37;;;;;;;;;;4433812;32;20307;-55
2021/11/04 03:30:19;;;;;;;17.93;8.80;;;;;;;;;;4433788;32;20279;-55
2021/11/04 03:32:46;;;;;;;14.50;9.13;;;;;;;;;;4433570;32;20253;-55
2021/11/04 03:35:13;;;;;;;12.17;8.87;;;;;;;;;;4433485;32;20260;-57
2021/11/04 03:37:41;;;;;;;12.40;7.90;;;;;;;;;;4433471;32;20244;-56
2021/11/04 03:40:07;;;;;;;14.93;8.00;;;;;;;;;;4433304;32;20215;-55
2021/11/04 03:42:33;;;;;;;14.07;9.13;;;;;;;;;;4433463;32;20285;-56
2021/11/04 03:45:00;;;;;;;12.23;8.67;;;;;;;;;;4433403;32;20362;-56
2021/11/04 03:47:30;;;;;;;14.37;6.70;;;;;;;;;;4432133;32;20228;-55
2021/11/04 03:49:58;;;;;;;16.47;9.00;;;;;;;;;;4433411;32;20355;-55
2021/11/04 03:52:23;;;;;;;12.70;8.13;;;;;;;;;;4433058;32;20660;-55
2021/11/04 03:54:49;;;;;;;21.37;12.00;;;;;;;;;;4433341;32;20276;-57
2021/11/04 03:57:17;;;;;;;20.30;11.73;;;;;;;;;;4433212;32;20248;-55
2021/11/04 03:59:42;;;;;;;28.43;15.57;;;;;;;;;;4433417;32;20306;-56
2021/11/04 04:02:08;;;;;;;17.57;9.93;;;;;;;;;;4433135;32;20279;-55
2021/11/04 04:04:34;;;;;;;17.53;8.07;;;;;;;;;;4432712;32;20597;-56
2021/11/04 04:06:59;;;;;;;20.20;8.53;;;;;;;;;;4433052;32;20243;-56
2021/11/04 04:09:25;;;;;;;19.03;8.83;;;;;;;;;;4433468;32;20338;-55
2021/11/04 04:11:53;;;;;;;16.63;8.27;;;;;;;;;;4432949;32;20338;-55
2021/11/04 04:14:19;;;;;;;13.07;9.17;;;;;;;;;;4433334;32;20193;-56
2021/11/04 04:16:44;;;;;;;24.20;9.30;;;;;;;;;;4431940;32;20714;-56
2021/11/04 04:19:10;;;;;;;23.57;10.67;;;;;;;;;;4433104;32;20275;-58
2021/11/04 04:21:36;;;;;;;16.83;9.37;;;;;;;;;;4431583;32;20225;-56
2021/11/04 04:24:02;;;;;;;21.07;9.73;;;;;;;;;;4432252;32;20264;-56
2021/11/04 04:26:28;;;;;;;16.20;8.97;;;;;;;;;;4431689;32;20568;-55
2021/11/04 04:28:53;;;;;;;14.10;8.43;;;;;;;;;;4432607;32;20283;-56
2021/11/04 04:31:18;;;;;;;20.10;9.00;;;;;;;;;;4433007;32;20220;-56
2021/11/04 04:33:44;;;;;;;21.33;9.57;;;;;;;;;;4433179;32;20673;-55
2021/11/04 04:36:09;;;;;;;18.17;9.30;;;;;;;;;;4432818;32;20377;-56
2021/11/04 04:38:35;;;;;;;21.77;9.73;;;;;;;;;;4432965;32;20263;-55
2021/11/04 04:41:00;;;;;;;23.30;13.17;;;;;;;;;;4432548;32;20520;-57
2021/11/04 04:43:26;;;;;;;24.63;12.60;;;;;;;;;;4432786;32;20297;-57
2021/11/04 04:45:52;;;;;;;20.20;11.93;;;;;;;;;;4432926;32;20664;-58
2021/11/04 04:48:17;;;;;;;23.63;11.73;;;;;;;;;;4432634;32;20303;-57
2021/11/04 04:50:43;;;;;;;25.13;12.03;;;;;;;;;;4432440;32;20692;-56
2021/11/04 04:53:09;;;;;;;21.23;11.93;;;;;;;;;;4432904;32;20278;-57
2021/11/04 04:55:35;;;;;;;22.00;13.20;;;;;;;;;;4432902;32;20342;-55
2021/11/04 04:58:01;;;;;;;38.03;17.17;;;;;;;;;;4432445;32;20291;-57
2021/11/04 05:00:27;;;;;;;65.17;30.93;;;;;;;;;;4434758;32;20720;-57
2021/11/04 05:02:53;;;;;;;88.87;45.23;;;;;;;;;;4435657;32;20607;-56
2021/11/04 05:05:18;;;;;;;78.77;40.77;;;;;;;;;;4433146;32;20363;-56
2021/11/04 05:07:44;;;;;;;77.93;38.10;;;;;;;;;;4420195;32;20204;-57
2021/11/04 05:10:11;;;;;;;66.13;32.90;;;;;;;;;;4420205;32;20578;-57
2021/11/04 05:12:37;;;;;;;55.87;28.80;;;;;;;;;;4420073;32;20229;-56
2021/11/04 05:15:04;;;;;;;49.43;23.80;;;;;;;;;;4421485;32;20626;-56
2021/11/04 05:17:30;;;;;;;41.73;23.97;;;;;;;;;;4435579;32;20259;-56
2021/11/04 05:19:56;;;;;;;48.57;23.70;;;;;;;;;;4434329;32;20339;-57
2021/11/04 05:22:21;;;;;;;47.70;25.10;;;;;;;;;;4435818;32;20295;-57
2021/11/04 05:24:46;;;;;;;43.10;25.17;;;;;;;;;;4435298;32;20710;-56
2021/11/04 05:27:12;;;;;;;54.10;30.03;;;;;;;;;;4435191;32;20637;-57
2021/11/04 05:29:38;;;;;;;68.83;33.80;;;;;;;;;;4434253;32;20319;-56
2021/11/04 05:32:07;;;;;;;60.80;33.97;;;;;;;;;;4435684;32;20245;-56
2021/11/04 05:34:40;;;;;;;74.13;37.63;;;;;;;;;;4434318;32;20244;-56
2021/11/04 05:37:07;;;;;;;62.70;35.07;;;;;;;;;;4433426;32;20297;-56
2021/11/04 05:39:38;;;;;;;63.03;32.23;;;;;;;;;;4435290;32;20204;-57
2021/11/04 05:42:04;;;;;;;63.60;32.00;;;;;;;;;;4435237;32;20527;-57
2021/11/04 05:44:30;;;;;;;64.40;36.57;;;;;;;;;;4435161;32;20229;-56
2021/11/04 05:46:56;;;;;;;68.37;37.70;;;;;;;;;;4434122;32;20229;-57
2021/11/04 05:49:21;;;;;;;60.47;34.37;;;;;;;;;;4434013;32;20326;-57
2021/11/04 05:51:47;;;;;;;68.87;37.37;;;;;;;;;;4435294;32;20262;-56
2021/11/04 05:54:13;;;;;;;66.00;36.93;;;;;;;;;;4435109;32;20264;-56
2021/11/04 05:56:38;;;;;;;70.10;38.30;;;;;;;;;;4434929;32;20288;-56
2021/11/04 05:59:04;;;;;;;84.70;44.80;;;;;;;;;;4433685;32;20296;-55
2021/11/04 06:01:29;;;;;;;90.37;44.23;;;;;;;;;;4434950;32;20722;-55
2021/11/04 06:03:54;;;;;;;99.23;49.50;;;;;;;;;;4435117;32;20248;-56
2021/11/04 06:06:20;;;;;;;116.97;58.63;;;;;;;;;;4425577;32;20514;-55
2021/11/04 06:08:46;;;;;;;99.43;56.87;;;;;;;;;;4419852;32;20280;-57
2021/11/04 06:11:11;;;;;;;131.57;64.93;;;;;;;;;;4419180;32;20229;-56
2021/11/04 06:13:37;;;;;;;134.07;68.17;;;;;;;;;;4419418;32;20315;-56
2021/11/04 06:16:02;;;;;;;180.73;84.30;;;;;;;;;;4426919;32;20384;-57
2021/11/04 06:18:28;;;;;;;203.97;97.23;;;;;;;;;;4434526;32;20272;-58
2021/11/04 06:20:54;;;;;;;109.80;60.33;;;;;;;;;;4432867;32;20300;-56
2021/11/04 06:23:19;;;;;;;108.03;46.97;;;;;;;;;;4434263;32;20288;-56
2021/11/04 06:25:44;;;;;;;89.20;50.37;;;;;;;;;;4432777;32;20705;-57
2021/11/04 06:28:10;;;;;;;80.97;46.57;;;;;;;;;;4434428;32;20498;-56
2021/11/04 06:30:35;;;;;;;106.73;57.87;;;;;;;;;;4434493;32;20280;-57
2021/11/04 06:33:01;;;;;;;57.47;36.10;;;;;;;;;;4433454;32;20292;-56
2021/11/04 06:35:26;;;;;;;86.70;48.30;;;;;;;;;;4434198;32;20402;-58
2021/11/04 06:37:52;;;;;;;66.13;33.73;;;;;;;;;;4432246;32;20221;-57
2021/11/04 06:40:18;;;;;;;77.63;43.30;;;;;;;;;;4432046;32;20695;-57
2021/11/04 06:42:43;;;;;;;64.80;39.40;;;;;;;;;;4431124;32;20651;-56
2021/11/04 06:45:09;;;;;;;69.87;34.83;;;;;;;;;;4432083;32;20390;-57
2021/11/04 06:47:39;;;;;;;64.70;34.70;;;;;;;;;;4431754;32;20327;-57
2021/11/04 06:50:06;;;;;;;66.07;34.57;;;;;;;;;;4431993;32;20205;-57
2021/11/04 06:52:43;;;;;;;47.43;26.60;;;;;;;;;;4431902;32;20320;-56
2021/11/04 06:55:10;;;;;;;71.13;37.30;;;;;;;;;;4432652;32;20637;-56
2021/11/04 06:57:40;;;;;;;53.30;30.83;;;;;;;;;;4433608;32;20701;-56
2021/11/04 07:00:07;;;;;;;45.37;26.60;;;;;;;;;;4433445;32;20721;-57
2021/11/04 07:02:39;;;;;;;52.73;26.20;;;;;;;;;;4433796;32;20313;-56
2021/11/04 07:05:07;;;;;;;48.80;25.73;;;;;;;;;;4432181;32;20238;-57
2021/11/04 07:10:12;;;;;;;44.47;23.30;;;;;;;;;;4418084;32;20652;-56
2021/11/04 07:12:42;;;;;;;51.00;27.63;;;;;;;;;;4417811;32;20387;-57
2021/11/04 07:15:08;;;;;;;45.80;24.33;;;;;;;;;;4419780;32;20220;-57
2021/11/04 07:17:38;;;;;;;52.80;25.10;;;;;;;;;;4433524;32;20781;-57
2021/11/04 07:20:04;;;;;;;54.57;25.73;;;;;;;;;;4432920;32;20327;-57
2021/11/04 07:22:40;;;;;;;45.83;23.93;;;;;;;;;;4431418;32;20553;-57
2021/11/04 07:25:09;;;;;;;46.93;23.83;;;;;;;;;;4432506;32;20234;-58
2021/11/04 07:27:44;;;;;;;40.10;24.77;;;;;;;;;;4433035;32;20243;-57
2021/11/04 07:30:14;;;;;;;43.13;25.57;;;;;;;;;;4433388;32;20653;-57
2021/11/04 07:32:47;;;;;;;46.33;26.30;;;;;;;;;;4433179;32;20220;-57
2021/11/04 07:35:16;;;;;;;60.43;34.67;;;;;;;;;;4432737;32;20232;-55
2021/11/04 07:37:43;;;;;;;52.23;30.03;;;;;;;;;;4432880;32;20308;-57
2021/11/04 07:40:09;;;;;;;54.97;28.07;;;;;;;;;;4433019;32;20294;-58
2021/11/04 07:42:36;;;;;;;45.30;24.97;;;;;;;;;;4432777;32;20292;-57
2021/11/04 07:45:02;;;;;;;47.77;25.90;;;;;;;;;;4432962;32;20196;-57
2021/11/04 07:47:28;;;;;;;43.97;25.73;;;;;;;;;;4433134;32;20660;-57
2021/11/04 07:49:53;;;;;;;33.33;22.20;;;;;;;;;;4433119;32;20264;-57
2021/11/04 07:52:19;;;;;;;31.00;17.73;;;;;;;;;;4432891;32;20225;-56
2021/11/04 07:54:45;;;;;;;37.70;20.43;;;;;;;;;;4432595;32;20687;-56
2021/11/04 07:57:10;;;;;;;28.53;17.53;;;;;;;;;;4432223;32;20470;-56
2021/11/04 07:59:36;;;;;;;31.53;18.87;;;;;;;;;;4431280;32;20594;-56
2021/11/04 08:02:01;;;;;;;35.57;18.70;;;;;;;;;;4432234;32;20259;-55
2021/11/04 08:04:28;;;;;;;32.50;18.60;;;;;;;;;;4432346;32;20291;-57
2021/11/04 08:06:53;;;;;;;37.40;22.07;;;;;;;;;;4418936;32;20382;-56
2021/11/04 08:09:20;;;;;;;35.27;20.33;;;;;;;;;;4417380;32;20609;-57
2021/11/04 08:11:45;;;;;;;29.03;14.60;;;;;;;;;;4417360;32;20304;-56
2021/11/04 08:14:11;;;;;;;30.03;17.37;;;;;;;;;;4416744;32;20284;-56
2021/11/04 08:16:36;;;;;;;26.53;16.60;;;;;;;;;;4427992;32;20221;-55
2021/11/04 08:19:02;;;;;;;32.77;17.93;;;;;;;;;;4432150;32;20650;-56
2021/11/04 08:21:27;;;;;;;26.07;14.10;;;;;;;;;;4431083;32;20244;-57
2021/11/04 08:23:53;;;;;;;32.67;16.43;;;;;;;;;;4431572;32;20272;-56
2021/11/04 08:26:19;;;;;;;22.77;15.30;;;;;;;;;;4432043;32;20228;-57
2021/11/04 08:28:44;;;;;;;31.60;19.20;;;;;;;;;;4432700;32;20653;-56
2021/11/04 08:31:10;;;;;;;41.30;22.53;;;;;;;;;;4432441;32;20741;-56
2021/11/04 08:33:35;;;;;;;15.67;10.00;;;;;;;;;;4430433;32;20276;-56
2021/11/04 08:36:01;;;;;;;17.47;10.70;;;;;;;;;;4432303;32;20255;-57
2021/11/04 08:38:26;;;;;;;13.07;6.77;;;;;;;;;;4432804;32;20290;-56
2021/11/04 08:40:52;;;;;;;23.20;11.00;;;;;;;;;;4432596;32;20327;-57
2021/11/04 08:43:17;;;;;;;23.10;10.03;;;;;;;;;;4432875;32;20264;-56
2021/11/04 08:45:43;;;;;;;14.27;9.63;;;;;;;;;;4431478;32;20295;-57
2021/11/04 08:48:08;;;;;;;21.40;9.77;;;;;;;;;;4432706;32;20247;-57
2021/11/04 08:50:34;;;;;;;16.60;9.07;;;;;;;;;;4433182;32;20340;-56
2021/11/04 08:52:59;;;;;;;16.73;10.30;;;;;;;;;;4432606;32;20220;-56
2021/11/04 08:55:25;;;;;;;15.97;9.10;;;;;;;;;;4432847;32;20305;-59
2021/11/04 08:57:52;;;;;;;15.63;8.87;;;;;;;;;;4432853;32;20322;-57
2021/11/04 09:00:18;;;;;;;14.27;8.87;;;;;;;;;;4418739;32;20322;-57
2021/11/04 09:02:44;;;;;;;18.50;7.67;;;;;;;;;;4432384;32;20229;-57
2021/11/04 09:05:10;;;;;;;11.50;8.03;;;;;;;;;;4430551;32;20299;-58
2021/11/04 09:07:41;;;;;;;20.37;10.57;;;;;;;;;;4417345;32;20288;-58
2021/11/04 09:10:11;;;;;;;24.47;11.70;;;;;;;;;;4417079;32;20348;-58
2021/11/04 09:12:37;;;;;;;15.90;10.50;;;;;;;;;;4417126;32;20722;-57
2021/11/04 09:15:04;;;;;;;17.10;10.57;;;;;;;;;;4418031;32;20284;-57
2021/11/04 09:17:31;;;;;;;17.37;11.77;;;;;;;;;;4432489;32;20209;-56
2021/11/04 09:19:56;;;;;;;18.07;10.37;;;;;;;;;;4432193;32;20276;-56
2021/11/04 09:22:22;;;;;;;19.77;10.13;;;;;;;;;;4432636;32;20621;-56
2021/11/04 09:24:48;;;;;;;20.70;10.23;;;;;;;;;;4431910;32;20284;-57
2021/11/04 09:27:14;;;;;;;20.10;11.20;;;;;;;;;;4432331;32;20352;-57
2021/11/04 09:29:41;;;;;;;18.97;10.67;;;;;;;;;;4432471;32;20351;-58
2021/11/04 09:32:08;;;;;;;26.33;13.77;;;;;;;;;;4431973;32;20687;-58
2021/11/04 09:34:34;;;;;;;17.67;11.27;;;;;;;;;;4432280;32;20196;-58
2021/11/04 09:37:00;;;;;;;22.23;10.00;;;;;;;;;;4432205;32;20278;-58
2021/11/04 09:39:25;;;;;;;19.73;10.53;;;;;;;;;;4432920;32;20630;-58
2021/11/04 09:41:51;;;;;;;17.07;9.60;;;;;;;;;;4432460;32;20299;-57
2021/11/04 09:44:18;;;;;;;17.37;8.80;;;;;;;;;;4430850;32;20359;-58
2021/11/04 09:46:44;;;;;;;15.37;8.40;;;;;;;;;;4434696;32;20228;-58
2021/11/04 09:49:09;;;;;;;9.37;6.00;;;;;;;;;;4434892;32;20649;-57
2021/11/04 09:51:36;;;;;;;12.67;6.33;;;;;;;;;;4435128;32;20217;-58
2021/11/04 09:54:02;;;;;;;12.20;6.20;;;;;;;;;;4434891;32;20314;-57
2021/11/04 09:56:29;;;;;;;10.03;6.27;;;;;;;;;;4434548;32;20599;-56
2021/11/04 09:58:54;;;;;;;10.97;5.00;;;;;;;;;;4435182;32;20275;-57
2021/11/04 10:01:31;;;;;;;15.30;6.77;;;;;;;;;;4419654;32;20427;-58
2021/11/04 10:03:59;;;;;;;11.27;6.20;;;;;;;;;;4418413;32;20284;-57
2021/11/04 10:06:34;;;;;;;13.47;5.90;;;;;;;;;;4428536;32;20658;-58
2021/11/04 10:09:03;;;;;;;13.70;6.80;;;;;;;;;;4434592;32;20357;-57
2021/11/04 10:11:36;;;;;;;11.50;6.67;;;;;;;;;;4433455;32;20489;-57
2021/11/04 10:14:04;;;;;;;15.88;6.05;;;;;;;;;;4434125;32;20189;-57
2021/11/04 10:16:32;;;;;;;237.38;132.65;;;;;;;;;;4432993;32;20255;-57
2021/11/04 10:19:01;;;;;;;31.98;16.70;;;;;;;;;;4434532;32;20607;-57
2021/11/04 10:21:28;;;;;;;21.12;11.85;;;;;;;;;;4434327;32;20334;-57
2021/11/04 10:23:54;;;;;;;16.50;8.20;;;;;;;;;;4432910;32;20315;-57
2021/11/04 10:26:23;;;;;;;11.77;5.53;;;;;;;;;;4434344;32;20221;-58
2021/11/04 10:28:57;;;;;;;11.82;7.80;;;;;;;;;;4434126;32;20260;-57
2021/11/04 10:31:22;;;;;;;12.50;7.00;;;;;;;;;;4434452;32;20240;-57
2021/11/04 10:33:50;;;;;;;16.25;11.50;;;;;;;;;;4434444;32;20763;-58
2021/11/04 10:36:18;;;;;;;21.17;12.05;;;;;;;;;;4433675;32;20237;-58
2021/11/04 10:38:46;;;;;;;10.75;5.87;;;;;;;;;;4434273;32;20201;-57
2021/11/04 10:41:33;;;;;;;16.92;8.32;;;;;;;;;;4433773;32;20232;-58
2021/11/04 10:44:08;;;;;;;10.52;5.97;;;;;;;;;;4433852;32;20283;-59
2021/11/04 10:46:46;;;;;;;17.77;5.97;;;;;;;;;;4433411;32;20742;-58
2021/11/04 10:49:13;;;;;;;13.82;7.03;;;;;;;;;;4433567;32;20276;-58
2021/11/04 10:51:39;;;;;;;9.38;5.85;;;;;;;;;;4433928;32;20212;-58
2021/11/04 10:54:13;;;;;;;11.48;6.03;;;;;;;;;;4434006;32;20756;-59
2021/11/04 10:56:40;;;;;;;10.23;6.03;;;;;;;;;;4431742;32;20269;-59
2021/11/04 10:59:11;;;;;;;51.22;28.50;;;;;;;;;;4432736;32;20220;-59
2021/11/04 11:01:46;;;;;;;21.48;9.35;;;;;;;;;;4431925;32;20224;-59
2021/11/04 11:04:17;;;;;;;10.82;7.05;;;;;;;;;;4433563;32;20747;-59
2021/11/04 11:06:51;;;;;;;13.02;6.03;;;;;;;;;;4431834;32;20302;-58
2021/11/04 11:09:20;;;;;;;14.02;9.43;;;;;;;;;;4433618;32;20652;-59
2021/11/04 11:11:48;;;;;;;15.93;6.20;;;;;;;;;;4433428;32;20231;-58
2021/11/04 11:14:15;;;;;;;10.48;6.00;;;;;;;;;;4433042;32;20224;-58
2021/11/04 11:16:49;;;;;;;38.15;26.08;;;;;;;;;;4432992;32;20645;-58
2021/11/04 11:19:22;;;;;;;15.93;8.30;;;;;;;;;;4432072;32;20657;-58
2021/11/04 11:21:51;;;;;;;138.55;90.18;;;;;;;;;;4433460;32;20299;-58
2021/11/04 11:24:17;;;;;;;32.78;16.85;;;;;;;;;;4428461;32;20189;-58
2021/11/04 11:26:44;;;;;;;26.25;13.10;;;;;;;;;;4431886;32;20668;-58
2021/11/04 11:29:11;;;;;;;17.85;11.57;;;;;;;;;;4433168;32;20656;-59
2021/11/04 11:31:53;;;;;;;14.93;6.40;;;;;;;;;;4431781;32;20224;-58
2021/11/04 11:34:32;;;;;;;202.10;100.55;;;;;;;;;;4432937;32;20207;-57
2021/11/04 11:37:12;;;;;;;22.80;11.18;;;;;;;;;;4431303;32;20239;-58
2021/11/04 11:39:41;;;;;;;69.68;34.47;;;;;;;;;;4432826;32;20246;-57
2021/11/04 11:42:09;;;;;;;27.42;11.98;;;;;;;;;;4432887;32;20637;-58
2021/11/04 11:44:45;;;;;;;27.15;11.65;;;;;;;;;;4432921;32;20277;-58
2021/11/04 11:47:22;;;;;;;17.87;8.15;;;;;;;;;;4432705;32;20278;-59
2021/11/04 11:50:07;;;;;;;125.55;61.85;;;;;;;;;;4432629;32;20200;-58
2021/11/04 11:53:00;;;;;;;36.53;16.00;;;;;;;;;;4431238;32;20262;-57
2021/11/04 11:55:35;;;;;;;20.05;8.45;;;;;;;;;;4433064;32;20189;-55
2021/11/04 11:58:23;;;;;;;24.35;13.07;;;;;;;;;;4432338;32;20324;-56
2021/11/04 12:01:17;;;;;;;38.45;17.77;;;;;;;;;;4432373;32;20291;-56
2021/11/04 12:03:44;;;;;;;513.87;287.98;;;;;;;;;;4432353;32;20273;-57
2021/11/04 12:06:15;;;;;;;45.20;20.37;;;;;;;;;;4423994;32;20328;-56
2021/11/04 12:08:51;;;;;;;15.15;7.12;;;;;;;;;;4417318;32;20306;-57
2021/11/04 12:11:35;;;;;;;11.25;5.90;;;;;;;;;;4432648;32;20320;-58
2021/11/04 12:14:20;;;;;;;18.45;5.78;;;;;;;;;;4430954;32;20628;-59
2021/11/04 12:17:01;;;;;;;17.08;7.60;;;;;;;;;;4430856;32;20258;-57
2021/11/04 12:19:46;;;;;;;14.20;6.90;;;;;;;;;;4432238;32;20264;-57
2021/11/04 12:22:18;;;;;;;9.48;5.32;;;;;;;;;;4431897;32;20677;-56
2021/11/04 12:24:51;;;;;;;7.10;3.47;;;;;;;;;;4431790;32;20239;-57
2021/11/04 12:27:17;;;;;;;4.68;2.83;;;;;;;;;;4430761;32;20280;-57
2021/11/04 12:29:44;;;;;;;5.57;2.40;;;;;;;;;;4432172;32;20229;-57
2021/11/04 12:32:18;;;;;;;8.05;2.33;;;;;;;;;;4431899;32;20331;-57
2021/11/04 12:34:53;;;;;;;7.00;2.30;;;;;;;;;;4430843;32;20245;-57
2021/11/04 12:37:20;;;;;;;5.57;2.80;;;;;;;;;;4430858;32;20236;-57
2021/11/04 12:39:46;;;;;;;7.35;2.30;;;;;;;;;;4432040;32;20280;-57
2021/11/04 12:42:16;;;;;;;4.10;2.47;;;;;;;;;;4431905;32;20319;-56
2021/11/04 12:44:42;;;;;;;8.40;3.47;;;;;;;;;;4431962;32;20280;-57
2021/11/04 12:47:07;;;;;;;4.80;3.05;;;;;;;;;;4431592;32;20244;-57
2021/11/04 12:49:35;;;;;;;7.80;2.60;;;;;;;;;;4429111;32;20323;-57
2021/11/04 12:52:04;;;;;;;15.68;5.60;;;;;;;;;;4431525;32;20288;-57
2021/11/04 12:54:35;;;;;;;16.85;3.58;;;;;;;;;;4431375;32;20200;-57
2021/11/04 12:57:06;;;;;;;10.13;4.15;;;;;;;;;;4431500;32;20421;-56
2021/11/04 13:00:03;;;;;;;6.62;3.12;;;;;;;;;;4426479;32;20297;-56
2021/11/04 13:02:35;;;;;;;20.35;3.72;;;;;;;;;;4416066;32;20269;-56
2021/11/04 13:05:13;;;;;;;8.80;4.50;;;;;;;;;;4415988;32;20315;-57
2021/11/04 13:07:42;;;;;;;18.83;7.03;;;;;;;;;;4431719;32;20304;-57
2021/11/04 13:10:16;;;;;;;27.00;10.23;;;;;;;;;;4431776;32;20201;-57
2021/11/04 13:12:45;;;;;;;47.40;21.75;;;;;;;;;;4431575;32;20278;-57
2021/11/04 13:15:21;;;;;;;26.20;11.52;;;;;;;;;;4431609;32;20362;-57
2021/11/04 13:17:55;;;;;;;14.57;5.65;;;;;;;;;;4431413;32;20228;-57
2021/11/04 13:20:29;;;;;;;25.58;11.38;;;;;;;;;;4431559;32;20366;-57
2021/11/04 13:23:05;;;;;;;45.42;24.77;;;;;;;;;;4434721;32;20271;-56
2021/11/04 13:25:32;;;;;;;9.35;2.65;;;;;;;;;;4434218;32;20212;-55
2021/11/04 13:28:12;;;;;;;4.07;2.40;;;;;;;;;;4433784;32;20552;-56
2021/11/04 13:30:50;;;;;;;7.10;2.75;;;;;;;;;;4434895;32;20278;-56
2021/11/04 13:33:18;;;;;;;8.07;3.08;;;;;;;;;;4434815;32;20243;-56
2021/11/04 13:35:46;;;;;;;9.75;4.07;;;;;;;;;;4435144;32;20243;-56
2021/11/04 13:38:20;;;;;;;15.35;5.78;;;;;;;;;;4434885;32;20292;-56
2021/11/04 13:40:53;;;;;;;9.50;4.22;;;;;;;;;;4435249;32;20518;-55
2021/11/04 13:43:34;;;;;;;9.32;4.30;;;;;;;;;;4434621;32;20213;-55
2021/11/04 13:46:14;;;;;;;12.73;5.12;;;;;;;;;;4434771;32;20793;-55
2021/11/04 13:48:45;;;;;;;6.55;2.50;;;;;;;;;;4434588;32;20223;-55
2021/11/04 13:51:37;;;;;;;10.27;3.65;;;;;;;;;;4434473;32;20245;-55
2021/11/04 13:54:24;;;;;;;13.52;4.75;;;;;;;;;;4434466;32;20565;-56
2021/11/04 13:56:56;;;;;;;8.95;3.28;;;;;;;;;;4434115;32;20296;-55
2021/11/04 13:59:34;;;;;;;4.65;2.97;;;;;;;;;;4434081;32;20884;-56
2021/11/04 14:02:18;;;;;;;6.45;3.05;;;;;;;;;;4433596;32;20308;-55
2021/11/04 14:04:55;;;;;;;9.68;4.22;;;;;;;;;;4418839;32;20215;-55
2021/11/04 14:07:34;;;;;;;6.07;2.95;;;;;;;;;;4418673;32;20342;-56
2021/11/04 14:10:01;;;;;;;10.77;3.70;;;;;;;;;;4418824;32;20177;-56
2021/11/04 14:12:31;;;;;;;12.23;3.42;;;;;;;;;;4418533;32;20689;-55
2021/11/04 14:15:07;;;;;;;4.57;2.30;;;;;;;;;;4432546;32;20236;-54
2021/11/04 14:17:46;;;;;;;16.35;4.75;;;;;;;;;;4433368;32;20282;-54
2021/11/04 14:20:12;;;;;;;8.05;2.92;;;;;;;;;;4433606;32;20787;-55
2021/11/04 14:22:38;;;;;;;9.07;3.05;;;;;;;;;;4433370;32;20255;-56
2021/11/04 14:25:05;;;;;;;11.77;4.15;;;;;;;;;;4428804;32;20209;-56
2021/11/04 14:27:31;;;;;;;8.27;3.65;;;;;;;;;;4433742;32;20621;-57
2021/11/04 14:29:56;;;;;;;8.63;2.62;;;;;;;;;;4433246;32;20290;-56
2021/11/04 14:32:21;;;;;;;7.18;3.08;;;;;;;;;;4432411;32;20743;-57
2021/11/04 14:34:47;;;;;;;8.05;2.67;;;;;;;;;;4432347;32;20300;-56